createdAt,value
2022-08-11T00:02:01.935Z,96700.41
2022-08-11T00:04:36.994Z,96704.72
2022-08-11T00:07:06.850Z,96699.84
2022-08-11T00:09:38.914Z,96707.94
2022-08-11T00:12:14.888Z,96709.56
2022-08-11T00:14:44.715Z,96705.75
2022-08-11T00:17:15.794Z,96704.16
2022-08-11T00:20:11.994Z,96698.72
2022-08-11T00:22:37.754Z,96694.69
2022-08-11T00:25:11.214Z,96704.72
2022-08-11T00:27:42.200Z,96706.88
2022-08-11T00:30:12.211Z,96705.22
2022-08-11T00:32:42.018Z,96693.06
2022-08-11T00:35:52.470Z,96710.66
2022-08-11T00:38:02.331Z,96704.97
2022-08-11T00:40:37.944Z,96696.03
2022-08-11T00:43:20.355Z,96709.03
2022-08-11T00:46:10.122Z,96713.94
2022-08-11T00:49:00.622Z,96707.69
2022-08-11T00:52:04.909Z,96698.81
2022-08-11T00:55:00.158Z,96705.25
2022-08-11T00:57:57.993Z,96705.56
2022-08-11T01:00:33.347Z,96699.34
2022-08-11T01:03:20.007Z,96697.97
2022-08-11T01:06:17.900Z,96701.50
2022-08-11T01:09:22.970Z,96706.41
2022-08-11T01:12:24.438Z,96710.16
2022-08-11T01:15:56.041Z,96706.94
2022-08-11T01:18:51.955Z,96704.22
2022-08-11T01:21:59.122Z,96712.00
2022-08-11T01:24:52.639Z,96701.00
2022-08-11T01:27:50.531Z,96703.09
2022-08-11T01:30:57.129Z,96703.38
2022-08-11T01:34:04.932Z,96699.84
2022-08-11T01:37:31.133Z,96705.81
2022-08-11T01:40:44.639Z,96700.97
2022-08-11T01:44:21.421Z,96701.75
2022-08-11T01:46:55.419Z,96701.78
2022-08-11T01:50:09.619Z,96705.28
2022-08-11T01:52:30.140Z,96701.50
2022-08-11T01:55:13.775Z,96695.25
2022-08-11T01:57:49.928Z,96700.66
2022-08-11T02:00:21.829Z,96697.69
2022-08-11T02:02:57.646Z,96696.88
2022-08-11T02:05:37.849Z,96700.91
2022-08-11T02:08:15.971Z,96691.69
2022-08-11T02:11:12.628Z,96695.50
2022-08-11T02:13:47.313Z,96696.28
2022-08-11T02:16:27.830Z,96694.91
2022-08-11T02:19:24.001Z,96691.09
2022-08-11T02:22:13.307Z,96694.28
2022-08-11T02:24:48.780Z,96691.59
2022-08-11T02:27:23.168Z,96686.16
2022-08-11T02:30:04.939Z,96684.28
2022-08-11T02:32:55.421Z,96692.94
2022-08-11T02:35:28.900Z,96688.88
2022-08-11T02:38:15.360Z,96683.16
2022-08-11T02:40:53.514Z,96692.66
2022-08-11T02:43:32.309Z,96691.31
2022-08-11T02:46:18.720Z,96691.59
2022-08-11T02:49:18.480Z,96689.94
2022-08-11T02:52:02.276Z,96694.28
2022-08-11T02:54:47.021Z,96686.16
2022-08-11T02:57:25.426Z,96691.53
2022-08-11T02:59:58.174Z,96697.38
2022-08-11T03:02:41.160Z,96701.69
2022-08-11T03:05:23.286Z,96695.16
2022-08-11T03:08:09.395Z,96703.81
2022-08-11T03:11:07.493Z,96698.44
2022-08-11T03:14:00.677Z,96691.41
2022-08-11T03:16:48.151Z,96690.56
2022-08-11T03:19:24.131Z,96689.72
2022-08-11T03:22:01.482Z,96691.25
2022-08-11T03:24:40.466Z,96696.16
2022-08-11T03:27:11.825Z,96690.16
2022-08-11T03:29:54.613Z,96686.59
2022-08-11T03:32:29.853Z,96676.38
2022-08-11T03:35:01.583Z,96682.25
2022-08-11T03:37:51.959Z,96673.84
2022-08-11T03:41:06.182Z,96693.31
2022-08-11T03:44:05.458Z,96696.75
2022-08-11T03:46:57.599Z,96700.88
2022-08-11T03:49:36.145Z,96695.75
2022-08-11T03:52:14.443Z,96699.56
2022-08-11T03:54:55.482Z,96692.22
2022-08-11T03:58:25.739Z,96698.78
2022-08-11T04:01:36.193Z,96701.91
2022-08-11T04:04:39.789Z,96699.69
2022-08-11T04:08:06.676Z,96706.88
2022-08-11T04:11:07.823Z,96695.03
2022-08-11T04:14:30.391Z,96705.22
2022-08-11T04:17:19.586Z,96704.09
2022-08-11T04:20:19.431Z,96700.03
2022-08-11T04:23:03.514Z,96690.88
2022-08-11T04:25:58.421Z,96702.19
2022-08-11T04:28:56.100Z,96702.56
2022-08-11T04:31:52.288Z,96701.75
2022-08-11T04:34:50.673Z,96705.31
2022-08-11T04:37:53.298Z,96707.00
2022-08-11T04:40:44.974Z,96717.09
2022-08-11T04:44:02.807Z,96711.44
2022-08-11T04:48:02.039Z,96714.50
2022-08-11T04:51:00.787Z,96712.38
2022-08-11T04:54:18.928Z,96716.72
2022-08-11T04:57:06.795Z,96717.81
2022-08-11T05:00:07.170Z,96718.91
2022-08-11T05:03:10.586Z,96723.38
2022-08-11T05:06:02.758Z,96725.31
2022-08-11T05:09:07.834Z,96728.88
2022-08-11T05:12:08.893Z,96724.09
2022-08-11T05:14:59.935Z,96726.00
2022-08-11T05:17:54.435Z,96724.94
2022-08-11T05:20:42.663Z,96727.41
2022-08-11T05:23:30.126Z,96728.50
2022-08-11T05:26:48.022Z,96733.66
2022-08-11T05:29:45.335Z,96724.78
2022-08-11T05:32:35.372Z,96725.59
2022-08-11T05:35:07.457Z,96724.25
2022-08-11T05:37:39.547Z,96729.66
2022-08-11T05:40:27.477Z,96725.34
2022-08-11T05:43:16.954Z,96728.56
2022-08-11T05:46:14.557Z,96727.75
2022-08-11T05:49:00.401Z,96725.31
2022-08-11T05:51:55.370Z,96737.75
2022-08-11T05:54:46.783Z,96733.94
2022-08-11T05:57:42.342Z,96743.13
2022-08-11T06:00:12.004Z,96735.00
2022-08-11T06:02:45.473Z,96741.97
2022-08-11T06:05:14.251Z,96749.16
2022-08-11T06:07:49.236Z,96749.88
2022-08-11T06:10:28.273Z,96742.69
2022-08-11T06:12:58.223Z,96753.28
2022-08-11T06:15:27.612Z,96745.25
2022-08-11T06:17:58.612Z,96747.97
2022-08-11T06:20:27.099Z,96752.69
2022-08-11T06:23:00.309Z,96756.59
2022-08-11T06:25:32.821Z,96754.28
2022-08-11T06:28:01.459Z,96753.00
2022-08-11T06:30:40.714Z,96753.06
2022-08-11T06:33:13.180Z,96751.38
2022-08-11T06:35:49.392Z,96738.16
2022-08-11T06:38:29.193Z,96754.13
2022-08-11T06:41:17.895Z,96751.94
2022-08-11T06:43:56.112Z,96749.06
2022-08-11T06:46:31.499Z,96753.25
2022-08-11T06:49:03.703Z,96747.28
2022-08-11T06:51:32.774Z,96751.59
2022-08-11T06:54:05.126Z,96735.50
2022-08-11T06:57:12.517Z,96749.19
2022-08-11T07:00:00.939Z,96745.66
2022-08-11T07:02:33.670Z,96749.50
2022-08-11T07:05:09.278Z,96744.34
2022-08-11T07:08:33.827Z,96735.91
2022-08-11T07:11:40.057Z,96733.09
2022-08-11T07:14:26.969Z,96750.91
2022-08-11T07:16:55.980Z,96745.66
2022-08-11T07:19:51.012Z,96738.16
2022-08-11T07:22:47.454Z,96741.72
2022-08-11T07:25:34.838Z,96748.19
2022-08-11T07:28:22.355Z,96725.06
2022-08-11T07:30:58.439Z,96741.13
2022-08-11T07:34:06.499Z,96748.06
2022-08-11T07:36:20.668Z,96744.34
2022-08-11T07:38:56.348Z,96739.00
2022-08-11T07:41:28.590Z,96740.25
2022-08-11T07:44:08.781Z,96729.31
2022-08-11T07:46:58.031Z,96731.19
2022-08-11T07:49:45.539Z,96736.91
2022-08-11T07:52:30.386Z,96732.44
2022-08-11T07:55:02.219Z,96739.44
2022-08-11T07:58:14.622Z,96743.59
2022-08-11T08:00:55.687Z,96737.59
2022-08-11T08:03:53.641Z,96742.13
2022-08-11T08:06:41.147Z,96748.25
2022-08-11T08:09:28.174Z,96744.97
2022-08-11T08:12:15.341Z,96742.78
2022-08-11T08:15:01.517Z,96734.84
2022-08-11T08:18:09.349Z,96739.13
2022-08-11T08:20:39.150Z,96736.41
2022-08-11T08:23:07.965Z,96746.63
2022-08-11T08:25:39.115Z,96740.63
2022-08-11T08:28:10.986Z,96733.56
2022-08-11T08:30:51.091Z,96736.97
2022-08-11T08:33:23.189Z,96740.66
2022-08-11T08:36:11.145Z,96739.75
2022-08-11T08:38:40.541Z,96738.56
2022-08-11T08:41:09.368Z,96720.06
2022-08-11T08:43:48.638Z,96739.91
2022-08-11T08:46:20.368Z,96736.19
2022-08-11T08:48:49.164Z,96739.91
2022-08-11T08:52:02.395Z,96738.91
2022-08-11T08:54:30.026Z,96743.88
2022-08-11T08:56:58.417Z,96737.00
2022-08-11T08:59:47.379Z,96737.81
2022-08-11T09:02:17.289Z,96738.38
2022-08-11T09:04:47.914Z,96734.25
2022-08-11T09:07:18.411Z,96736.16
2022-08-11T09:09:50.316Z,96735.66
2022-08-11T09:12:38.439Z,96729.91
2022-08-11T09:15:11.583Z,96727.69
2022-08-11T09:17:42.433Z,96731.69
2022-08-11T09:20:14.223Z,96729.34
2022-08-11T09:23:41.674Z,96732.78
2022-08-11T09:26:08.663Z,96719.44
2022-08-11T09:28:37.849Z,96727.94
2022-08-11T09:31:10.036Z,96728.09
2022-08-11T09:33:38.407Z,96729.44
2022-08-11T09:36:27.582Z,96720.88
2022-08-11T09:39:14.442Z,96729.03
2022-08-11T09:42:00.489Z,96721.66
2022-08-11T09:44:49.512Z,96720.59
2022-08-11T09:47:24.384Z,96729.06
2022-08-11T09:49:55.089Z,96713.28
2022-08-11T09:52:25.022Z,96712.91
2022-08-11T09:54:54.385Z,96722.09
2022-08-11T09:57:41.173Z,96714.63
2022-08-11T10:00:13.384Z,96715.22
2022-08-11T10:02:47.065Z,96707.84
2022-08-11T10:05:35.736Z,96714.00
2022-08-11T10:08:04.768Z,96707.47
2022-08-11T10:10:36.831Z,96703.59
2022-08-11T10:14:29.352Z,96703.31
2022-08-11T10:16:03.606Z,96695.59
2022-08-11T10:18:52.619Z,96694.06
2022-08-11T10:21:29.087Z,96698.28
2022-08-11T10:24:17.194Z,96702.13
2022-08-11T10:26:54.285Z,96689.25
2022-08-11T10:29:45.249Z,96690.06
2022-08-11T10:32:46.322Z,96683.34
2022-08-11T10:35:29.215Z,96690.19
2022-08-11T10:38:07.485Z,96688.44
2022-08-11T10:40:39.862Z,96679.63
2022-08-11T10:43:13.318Z,96693.31
2022-08-11T10:46:15.880Z,96691.69
2022-08-11T10:48:44.141Z,96687.31
2022-08-11T10:51:50.561Z,96681.81
2022-08-11T10:54:24.226Z,96689.50
2022-08-11T10:57:11.455Z,96683.06
2022-08-11T10:59:39.720Z,96677.81
2022-08-11T11:02:07.698Z,96679.47
2022-08-11T11:04:50.923Z,96681.13
2022-08-11T11:07:24.620Z,96675.22
2022-08-11T11:09:56.911Z,96676.50
2022-08-11T11:12:45.569Z,96681.63
2022-08-11T11:15:32.900Z,96679.31
2022-08-11T11:18:06.911Z,96676.47
2022-08-11T11:20:43.815Z,96677.91
2022-08-11T11:23:21.401Z,96677.06
2022-08-11T11:26:11.188Z,96681.88
2022-08-11T11:29:04.128Z,96679.06
2022-08-11T11:31:47.141Z,96684.81
2022-08-11T11:34:24.692Z,96669.53
2022-08-11T11:36:56.726Z,96675.78
2022-08-11T11:39:28.405Z,96676.22
2022-08-11T11:41:59.079Z,96664.72
2022-08-11T11:44:28.195Z,96674.56
2022-08-11T11:46:56.872Z,96670.38
2022-08-11T11:49:28.155Z,96667.16
2022-08-11T11:51:58.493Z,96665.94
2022-08-11T11:54:30.970Z,96652.41
2022-08-11T11:57:20.940Z,96649.41
2022-08-11T12:00:08.236Z,96644.09
2022-08-11T12:02:37.024Z,96647.34
2022-08-11T12:05:06.369Z,96645.88
2022-08-11T12:07:56.938Z,96648.75
2022-08-11T12:10:45.763Z,96639.75
2022-08-11T12:13:32.448Z,96646.81
2022-08-11T12:16:33.990Z,96642.59
2022-08-11T12:18:54.120Z,96642.72
2022-08-11T12:21:22.638Z,96634.03
2022-08-11T12:24:08.705Z,96635.06
2022-08-11T12:27:16.566Z,96636.75
2022-08-11T12:29:54.242Z,96626.78
2022-08-11T12:32:24.258Z,96611.34
2022-08-11T12:34:52.741Z,96611.00
2022-08-11T12:37:24.824Z,96595.94
2022-08-11T12:40:49.495Z,96609.75
2022-08-11T12:43:37.783Z,96603.09
2022-08-11T12:46:09.482Z,96594.34
2022-08-11T12:49:02.028Z,96602.94
2022-08-11T12:52:11.726Z,96595.00
2022-08-11T12:54:51.387Z,96598.66
2022-08-11T12:57:44.915Z,96589.84
2022-08-11T13:00:34.113Z,96585.00
2022-08-11T13:03:20.976Z,96581.19
2022-08-11T13:05:50.437Z,96585.91
2022-08-11T13:08:18.728Z,96582.41
2022-08-11T13:11:05.369Z,96579.06
2022-08-11T13:13:54.031Z,96571.06
2022-08-11T13:16:24.810Z,96575.00
2022-08-11T13:18:53.767Z,96573.13
2022-08-11T13:21:22.817Z,96570.56
2022-08-11T13:24:01.919Z,96578.94
2022-08-11T13:26:43.601Z,96563.75
2022-08-11T13:29:19.638Z,96564.34
2022-08-11T13:31:49.695Z,96558.41
2022-08-11T13:34:19.965Z,96556.75
2022-08-11T13:36:50.273Z,96553.63
2022-08-11T13:39:19.150Z,96557.13
2022-08-11T13:41:48.538Z,96546.47
2022-08-11T13:44:24.809Z,96551.53
2022-08-11T13:46:57.335Z,96549.25
2022-08-11T13:49:26.134Z,96549.16
2022-08-11T13:51:55.240Z,96540.78
2022-08-11T13:54:24.871Z,96530.13
2022-08-11T13:56:56.057Z,96539.69
2022-08-11T13:59:30.902Z,96538.91
2022-08-11T14:02:22.217Z,96530.03
2022-08-11T14:04:57.417Z,96526.25
2022-08-11T14:07:28.627Z,96522.19
2022-08-11T14:10:00.225Z,96531.75
2022-08-11T14:12:47.868Z,96517.44
2022-08-11T14:15:20.000Z,96521.31
2022-08-11T14:17:55.963Z,96523.00
2022-08-11T14:20:39.288Z,96521.53
2022-08-11T14:23:11.049Z,96519.38
2022-08-11T14:26:02.507Z,96523.34
2022-08-11T14:28:37.427Z,96512.59
2022-08-11T14:31:09.389Z,96503.53
2022-08-11T14:33:59.528Z,96507.69
2022-08-11T14:36:29.766Z,96507.84
2022-08-11T14:38:58.210Z,96512.56
2022-08-11T14:42:07.412Z,96501.47
2022-08-11T14:44:52.892Z,96500.19
2022-08-11T14:47:23.798Z,96493.50
2022-08-11T14:50:09.713Z,96494.63
2022-08-11T14:52:39.412Z,96489.94
2022-08-11T14:55:27.216Z,96489.84
2022-08-11T14:57:57.499Z,96486.00
2022-08-11T15:00:26.591Z,96483.69
2022-08-11T15:03:13.714Z,96483.69
2022-08-11T15:05:57.591Z,96494.53
2022-08-11T15:08:48.541Z,96473.09
2022-08-11T15:11:35.292Z,96482.56
2022-08-11T15:14:06.229Z,96484.75
2022-08-11T15:16:53.570Z,96488.75
2022-08-11T15:19:22.202Z,96488.38
2022-08-11T15:22:27.780Z,96484.25
2022-08-11T15:24:55.958Z,96483.34
2022-08-11T15:27:43.201Z,96484.63
2022-08-11T15:30:33.165Z,96480.19
2022-08-11T15:33:24.726Z,96479.53
2022-08-11T15:36:11.179Z,96474.63
2022-08-11T15:38:45.811Z,96475.81
2022-08-11T15:41:35.873Z,96477.03
2022-08-11T15:44:38.737Z,96477.53
2022-08-11T15:47:14.350Z,96473.28
2022-08-11T15:50:10.893Z,96454.44
2022-08-11T15:52:43.996Z,96460.38
2022-08-11T15:55:13.324Z,96463.03
2022-08-11T15:58:00.145Z,96462.75
2022-08-11T16:00:46.494Z,96469.28
2022-08-11T16:03:54.445Z,96457.13
2022-08-11T16:06:23.923Z,96464.94
2022-08-11T16:08:56.334Z,96458.69
2022-08-11T16:11:27.607Z,96455.44
2022-08-11T16:14:14.300Z,96455.41
2022-08-11T16:16:42.777Z,96446.69
2022-08-11T16:19:12.225Z,96447.59
2022-08-11T16:21:43.101Z,96453.44
2022-08-11T16:26:30.482Z,96448.75
2022-08-11T16:27:13.148Z,96440.94
2022-08-11T16:29:45.631Z,96440.47
2022-08-11T16:32:20.560Z,96439.13
2022-08-11T16:35:13.734Z,96437.41
2022-08-11T16:38:00.113Z,96424.00
2022-08-11T16:40:29.494Z,96428.56
2022-08-11T16:43:17.670Z,96418.75
2022-08-11T16:46:04.384Z,96423.84
2022-08-11T16:48:38.249Z,96423.31
2022-08-11T16:51:08.094Z,96419.84
2022-08-11T16:53:45.959Z,96425.09
2022-08-11T16:56:31.224Z,96433.22
2022-08-11T16:59:14.579Z,96423.13
2022-08-11T17:01:44.745Z,96426.19
2022-08-11T17:04:38.059Z,96428.88
2022-08-11T17:07:42.129Z,96429.25
2022-08-11T17:10:51.089Z,96423.66
2022-08-11T17:13:27.612Z,96426.59
2022-08-11T17:16:08.529Z,96416.94
2022-08-11T17:18:43.277Z,96423.91
2022-08-11T17:21:16.065Z,96425.38
2022-08-11T17:23:47.118Z,96397.59
2022-08-11T17:26:19.161Z,96428.47
2022-08-11T17:28:51.748Z,96421.66
2022-08-11T17:31:40.012Z,96424.97
2022-08-11T17:34:26.396Z,96420.44
2022-08-11T17:36:55.752Z,96415.53
2022-08-11T17:39:29.319Z,96423.88
2022-08-11T17:42:16.262Z,96419.63
2022-08-11T17:45:03.184Z,96423.56
2022-08-11T17:47:51.390Z,96419.34
2022-08-11T17:50:19.975Z,96419.03
2022-08-11T17:53:06.537Z,96421.97
2022-08-11T17:55:54.405Z,96420.06
2022-08-11T17:58:41.720Z,96419.28
2022-08-11T18:01:12.151Z,96433.31
2022-08-11T18:03:56.393Z,96435.50
2022-08-11T18:06:33.750Z,96433.69
2022-08-11T18:09:22.544Z,96437.59
2022-08-11T18:12:10.837Z,96435.22
2022-08-11T18:14:59.219Z,96438.91
2022-08-11T18:17:44.609Z,96438.19
2022-08-11T18:20:31.164Z,96451.78
2022-08-11T18:23:20.217Z,96450.13
2022-08-11T18:26:07.645Z,96457.88
2022-08-11T18:28:58.146Z,96461.91
2022-08-11T18:31:44.465Z,96457.47
2022-08-11T18:34:34.930Z,96452.81
2022-08-11T18:37:29.084Z,96455.78
2022-08-11T18:40:17.306Z,96461.47
2022-08-11T18:43:05.750Z,96462.06
2022-08-11T18:46:06.460Z,96456.75
2022-08-11T18:48:54.971Z,96467.81
2022-08-11T18:51:41.470Z,96457.84
2022-08-11T18:54:30.254Z,96460.19
2022-08-11T18:57:19.683Z,96461.72
2022-08-11T19:00:07.191Z,96463.47
2022-08-11T19:02:55.710Z,96462.56
2022-08-11T19:06:35.841Z,96470.50
2022-08-11T19:08:50.136Z,96472.00
2022-08-11T19:11:42.734Z,96474.66
2022-08-11T19:14:31.637Z,96478.88
2022-08-11T19:17:43.498Z,96466.59
2022-08-11T19:20:29.983Z,96488.22
2022-08-11T19:23:17.312Z,96475.53
2022-08-11T19:26:03.806Z,96480.94
2022-08-11T19:28:52.839Z,96494.09
2022-08-11T19:31:44.507Z,96491.31
2022-08-11T19:34:31.984Z,96493.75
2022-08-11T19:37:24.061Z,96493.50
2022-08-11T19:40:12.304Z,96483.41
2022-08-11T19:42:59.785Z,96492.38
2022-08-11T19:45:52.956Z,96495.00
2022-08-11T19:48:39.557Z,96491.50
2022-08-11T19:51:26.866Z,96492.59
2022-08-11T19:54:13.344Z,96496.44
2022-08-11T19:57:00.160Z,96495.06
2022-08-11T19:59:46.418Z,96496.97
2022-08-11T20:02:33.120Z,96493.56
2022-08-11T20:05:18.871Z,96495.25
2022-08-11T20:08:04.701Z,96498.72
2022-08-11T20:10:52.086Z,96500.31
2022-08-11T20:13:41.596Z,96499.09
2022-08-11T20:16:29.630Z,96499.59
2022-08-11T20:19:18.188Z,96498.59
2022-08-11T20:22:08.269Z,96504.66
2022-08-11T20:24:56.591Z,96504.03
2022-08-11T20:27:43.045Z,96505.38
2022-08-11T20:30:29.462Z,96505.38
2022-08-11T20:33:15.433Z,96513.19
2022-08-11T20:36:02.547Z,96507.75
2022-08-11T20:38:51.310Z,96511.75
2022-08-11T20:41:58.481Z,96510.31
2022-08-11T20:44:45.937Z,96511.94
2022-08-11T20:47:59.167Z,96516.19
2022-08-11T20:50:40.811Z,96518.00
2022-08-11T20:53:29.286Z,96514.47
2022-08-11T20:56:17.048Z,96521.97
2022-08-11T20:59:21.737Z,96514.03
2022-08-11T21:02:09.859Z,96526.22
2022-08-11T21:04:56.333Z,96523.88
2022-08-11T21:07:43.855Z,96520.97
2022-08-11T21:10:44.654Z,96524.69
2022-08-11T21:13:34.376Z,96532.09
2022-08-11T21:16:25.400Z,96526.25
2022-08-11T21:19:59.527Z,96521.75
2022-08-11T21:22:29.049Z,96521.34
2022-08-11T21:25:16.097Z,96504.34
2022-08-11T21:28:06.236Z,96524.25
2022-08-11T21:30:57.652Z,96519.06
2022-08-11T21:33:46.058Z,96522.53
2022-08-11T21:36:32.971Z,96517.84
2022-08-11T21:39:20.377Z,96515.03
2022-08-11T21:42:12.054Z,96518.50
2022-08-11T21:45:01.023Z,96513.56
2022-08-11T21:47:48.463Z,96527.78
2022-08-11T21:50:33.843Z,96529.06
2022-08-11T21:53:19.616Z,96527.44
2022-08-11T21:56:05.425Z,96518.94
2022-08-11T21:58:52.123Z,96515.13
2022-08-11T22:01:39.840Z,96528.50
2022-08-11T22:04:25.951Z,96509.97
2022-08-11T22:07:11.705Z,96518.78
2022-08-11T22:09:57.003Z,96517.38
2022-08-11T22:12:45.325Z,96528.88
2022-08-11T22:15:31.172Z,96533.53
2022-08-11T22:18:20.067Z,96532.63
2022-08-11T22:21:06.042Z,96541.25
2022-08-11T22:23:56.456Z,96531.56
2022-08-11T22:26:42.722Z,96537.78
2022-08-11T22:29:50.881Z,96532.78
2022-08-11T22:32:38.439Z,96539.00
2022-08-11T22:35:28.688Z,96537.31
2022-08-11T22:38:15.756Z,96534.19
2022-08-11T22:41:01.592Z,96525.50
2022-08-11T22:43:47.555Z,96524.09
2022-08-11T22:46:33.881Z,96518.69
2022-08-11T22:49:20.224Z,96517.38
2022-08-11T22:52:09.018Z,96508.91
2022-08-11T22:54:55.316Z,96524.38
2022-08-11T22:57:55.170Z,96521.56
2022-08-11T23:00:47.230Z,96513.34
2022-08-11T23:03:37.446Z,96513.16
2022-08-11T23:06:25.600Z,96510.34
2022-08-11T23:09:12.156Z,96516.00
2022-08-11T23:12:07.193Z,96502.41
2022-08-11T23:14:56.311Z,96507.31
2022-08-11T23:17:42.669Z,96506.91
2022-08-11T23:20:36.975Z,96503.69
2022-08-11T23:23:27.059Z,96501.75
2022-08-11T23:26:14.656Z,96504.84
2022-08-11T23:29:04.530Z,96504.66
2022-08-11T23:31:53.877Z,96485.28
2022-08-11T23:35:04.737Z,96505.34
2022-08-11T23:37:45.455Z,96500.25
2022-08-11T23:40:30.753Z,96499.00
2022-08-11T23:43:18.747Z,96506.59
2022-08-11T23:46:04.102Z,96497.81
2022-08-11T23:48:50.582Z,96502.78
2022-08-11T23:51:37.656Z,96502.63
2022-08-11T23:54:27.208Z,96494.00
2022-08-11T23:57:13.518Z,96496.03
